createdAt,value
2022-08-03T00:00:14.610Z,87.74
2022-08-03T00:01:18.371Z,87.24
2022-08-03T00:02:21.485Z,87.15
2022-08-03T00:03:24.526Z,87.09
2022-08-03T00:04:33.619Z,87.21
2022-08-03T00:05:35.557Z,87.34
2022-08-03T00:06:40.422Z,87.63
2022-08-03T00:07:43.383Z,87.92
2022-08-03T00:08:47.329Z,88.19
2022-08-03T00:09:50.375Z,88.37
2022-08-03T00:10:53.483Z,88.49
2022-08-03T00:11:56.569Z,88.60
2022-08-03T00:12:59.550Z,88.43
2022-08-03T00:14:04.824Z,88.09
2022-08-03T00:15:11.155Z,87.82
2022-08-03T00:16:29.138Z,87.59
2022-08-03T00:17:52.650Z,87.32
2022-08-03T00:18:37.703Z,87.16
2022-08-03T00:19:40.806Z,87.15
2022-08-03T00:20:44.165Z,87.12
2022-08-03T00:21:47.150Z,87.28
2022-08-03T00:22:50.418Z,87.41
2022-08-03T00:23:53.488Z,87.54
2022-08-03T00:24:56.394Z,87.68
2022-08-03T00:26:31.116Z,87.72
2022-08-03T00:27:34.155Z,87.68
2022-08-03T00:28:38.792Z,87.71
2022-08-03T00:29:59.657Z,87.80
2022-08-03T00:30:46.759Z,87.92
2022-08-03T00:31:52.465Z,88.06
2022-08-03T00:32:55.171Z,88.19
2022-08-03T00:33:59.534Z,88.12
2022-08-03T00:35:08.274Z,88.24
2022-08-03T00:36:08.783Z,88.30
2022-08-03T00:37:11.753Z,88.35
2022-08-03T00:38:14.747Z,88.32
2022-08-03T00:39:17.696Z,88.21
2022-08-03T00:40:22.750Z,88.05
2022-08-03T00:41:25.888Z,88.11
2022-08-03T00:42:28.851Z,88.18
2022-08-03T00:43:31.817Z,88.29
2022-08-03T00:44:44.756Z,88.36
2022-08-03T00:45:48.214Z,88.54
2022-08-03T00:46:53.111Z,88.67
2022-08-03T00:47:56.889Z,88.67
2022-08-03T00:48:59.777Z,88.56
2022-08-03T00:50:03.503Z,88.47
2022-08-03T00:51:06.802Z,88.35
2022-08-03T00:52:11.261Z,88.30
2022-08-03T00:53:14.608Z,88.42
2022-08-03T00:54:18.492Z,88.45
2022-08-03T00:55:21.667Z,88.46
2022-08-03T00:56:26.192Z,88.27
2022-08-03T00:57:31.664Z,87.96
2022-08-03T00:58:34.655Z,87.73
2022-08-03T00:59:38.759Z,87.44
2022-08-03T01:00:42.938Z,87.26
2022-08-03T01:01:46.074Z,86.97
2022-08-03T01:02:49.258Z,86.92
2022-08-03T01:03:52.446Z,86.71
2022-08-03T01:04:56.116Z,86.58
2022-08-03T01:06:17.950Z,86.55
2022-08-03T01:07:27.010Z,86.45
2022-08-03T01:08:48.992Z,86.60
2022-08-03T01:10:09.850Z,86.60
2022-08-03T01:11:19.339Z,86.64
2022-08-03T01:12:41.048Z,86.67
2022-08-03T01:15:18.626Z,86.50
2022-08-03T01:16:25.823Z,86.47
2022-08-03T01:17:34.710Z,86.34
2022-08-03T01:18:44.245Z,86.25
2022-08-03T01:20:05.754Z,86.17
2022-08-03T01:21:15.047Z,86.33
2022-08-03T01:22:31.365Z,86.77
2022-08-03T01:23:50.068Z,87.23
2022-08-03T01:25:05.590Z,87.43
2022-08-03T01:26:24.705Z,87.80
2022-08-03T01:27:52.207Z,87.89
2022-08-03T01:29:04.805Z,87.95
2022-08-03T01:30:09.962Z,88.04
2022-08-03T01:31:15.663Z,88.12
2022-08-03T01:32:57.970Z,88.19
2022-08-03T01:33:30.582Z,88.18
2022-08-03T01:34:37.139Z,88.29
2022-08-03T01:35:46.340Z,88.28
2022-08-03T01:36:52.200Z,88.17
2022-08-03T01:38:04.869Z,88.25
2022-08-03T01:39:08.968Z,88.31
2022-08-03T01:40:14.033Z,88.32
2022-08-03T01:41:20.407Z,88.16
2022-08-03T01:42:25.060Z,87.85
2022-08-03T01:43:58.976Z,87.82
2022-08-03T01:44:41.444Z,87.78
2022-08-03T01:45:44.844Z,87.72
2022-08-03T01:46:50.734Z,87.81
2022-08-03T01:47:55.156Z,87.89
2022-08-03T01:48:59.629Z,87.89
2022-08-03T01:50:04.994Z,88.03
2022-08-03T01:51:09.002Z,87.88
2022-08-03T01:52:15.409Z,87.89
2022-08-03T01:53:20.064Z,87.92
2022-08-03T01:54:25.576Z,87.80
2022-08-03T01:55:31.724Z,87.58
2022-08-03T01:56:37.524Z,87.68
2022-08-03T01:58:05.785Z,87.50
2022-08-03T01:58:51.241Z,87.53
2022-08-03T01:59:57.267Z,87.54
2022-08-03T02:01:02.115Z,87.36
2022-08-03T02:02:29.075Z,87.09
2022-08-03T02:03:15.042Z,86.95
2022-08-03T02:04:19.045Z,87.01
2022-08-03T02:05:24.337Z,86.92
2022-08-03T02:07:00.281Z,86.88
2022-08-03T02:07:38.984Z,86.51
2022-08-03T02:08:44.386Z,86.25
2022-08-03T02:09:50.645Z,86.04
2022-08-03T02:10:56.525Z,85.97
2022-08-03T02:12:00.424Z,85.98
2022-08-03T02:13:06.331Z,86.14
2022-08-03T02:14:10.213Z,86.35
2022-08-03T02:15:16.212Z,86.59
2022-08-03T02:16:21.881Z,86.81
2022-08-03T02:17:38.570Z,86.90
2022-08-03T02:18:32.972Z,86.89
2022-08-03T02:19:37.235Z,86.95
2022-08-03T02:20:42.718Z,86.95
2022-08-03T02:21:55.990Z,86.80
2022-08-03T02:22:51.828Z,86.62
2022-08-03T02:23:55.181Z,86.57
2022-08-03T02:24:58.142Z,86.37
2022-08-03T02:26:04.072Z,86.08
2022-08-03T02:27:13.616Z,85.80
2022-08-03T02:28:19.577Z,85.61
2022-08-03T02:29:39.277Z,85.62
2022-08-03T02:30:38.646Z,85.79
2022-08-03T02:31:43.369Z,85.89
2022-08-03T02:32:52.697Z,85.77
2022-08-03T02:34:05.171Z,85.67
2022-08-03T02:35:11.781Z,85.50
2022-08-03T02:36:18.715Z,85.39
2022-08-03T02:37:25.154Z,85.45
2022-08-03T02:38:31.022Z,85.57
2022-08-03T02:39:36.362Z,85.71
2022-08-03T02:40:41.784Z,85.90
2022-08-03T02:41:51.634Z,86.19
2022-08-03T02:42:57.642Z,86.64
2022-08-03T02:44:07.101Z,86.91
2022-08-03T02:45:15.080Z,87.12
2022-08-03T02:46:22.037Z,87.19
2022-08-03T02:47:29.241Z,86.92
2022-08-03T02:48:36.215Z,86.67
2022-08-03T02:49:51.583Z,86.38
2022-08-03T02:50:47.573Z,86.19
2022-08-03T02:51:52.959Z,86.18
2022-08-03T02:52:58.272Z,86.33
2022-08-03T02:54:04.020Z,86.29
2022-08-03T02:55:10.013Z,86.38
2022-08-03T02:56:15.939Z,86.72
2022-08-03T02:57:21.061Z,86.88
2022-08-03T02:58:24.657Z,86.86
2022-08-03T02:59:30.742Z,86.64
2022-08-03T03:00:35.614Z,86.43
2022-08-03T03:01:39.702Z,86.20
2022-08-03T03:02:43.930Z,85.86
2022-08-03T03:03:49.302Z,85.56
2022-08-03T03:05:54.652Z,85.27
2022-08-03T03:06:00.475Z,85.16
2022-08-03T03:07:05.548Z,85.21
2022-08-03T03:08:18.758Z,85.42
2022-08-03T03:09:21.419Z,85.50
2022-08-03T03:10:25.614Z,85.67
2022-08-03T03:11:30.102Z,85.94
2022-08-03T03:12:36.798Z,86.27
2022-08-03T03:13:42.146Z,86.27
2022-08-03T03:14:45.160Z,86.42
2022-08-03T03:15:48.819Z,86.48
2022-08-03T03:16:52.434Z,86.43
2022-08-03T03:17:59.119Z,86.24
2022-08-03T03:19:02.746Z,86.09
2022-08-03T03:20:08.016Z,85.88
2022-08-03T03:21:12.432Z,85.70
2022-08-03T03:22:17.554Z,85.55
2022-08-03T03:23:23.052Z,85.25
2022-08-03T03:24:28.580Z,85.32
2022-08-03T03:25:32.475Z,85.27
2022-08-03T03:26:40.689Z,85.42
2022-08-03T03:27:41.721Z,85.50
2022-08-03T03:28:46.832Z,85.57
2022-08-03T03:29:50.268Z,85.65
2022-08-03T03:30:53.565Z,85.82
2022-08-03T03:31:56.859Z,85.86
2022-08-03T03:33:00.139Z,85.97
2022-08-03T03:34:04.692Z,85.96
2022-08-03T03:35:09.499Z,85.89
2022-08-03T03:36:14.704Z,85.68
2022-08-03T03:37:17.831Z,85.57
2022-08-03T03:38:20.803Z,85.76
2022-08-03T03:39:23.782Z,85.74
2022-08-03T03:40:27.530Z,85.71
2022-08-03T03:41:33.925Z,85.84
2022-08-03T03:42:38.758Z,85.87
2022-08-03T03:43:42.675Z,85.80
2022-08-03T03:44:45.724Z,85.72
2022-08-03T03:45:49.220Z,85.80
2022-08-03T03:46:52.400Z,85.83
2022-08-03T03:47:55.390Z,86.01
2022-08-03T03:48:58.408Z,85.86
2022-08-03T03:50:05.978Z,85.81
2022-08-03T03:51:09.788Z,85.69
2022-08-03T03:52:12.661Z,85.69
2022-08-03T03:53:15.916Z,85.73
2022-08-03T03:54:19.125Z,85.39
2022-08-03T03:55:22.485Z,85.08
2022-08-03T03:56:26.481Z,84.67
2022-08-03T03:57:29.711Z,84.38
2022-08-03T03:58:33.025Z,84.27
2022-08-03T03:59:40.721Z,84.49
2022-08-03T04:01:39.951Z,84.91
2022-08-03T04:02:43.601Z,85.17
2022-08-03T04:03:46.581Z,85.31
2022-08-03T04:05:07.780Z,85.43
2022-08-03T04:06:30.668Z,85.64
2022-08-03T04:07:55.592Z,85.62
2022-08-03T04:09:01.659Z,85.67
2022-08-03T04:10:26.847Z,85.55
2022-08-03T04:11:33.593Z,85.27
2022-08-03T04:12:39.285Z,84.88
2022-08-03T04:13:56.613Z,84.65
2022-08-03T04:15:04.190Z,84.58
2022-08-03T04:16:10.482Z,84.64
2022-08-03T04:17:14.892Z,84.70
2022-08-03T04:18:18.801Z,84.87
2022-08-03T04:19:28.459Z,84.88
2022-08-03T04:20:35.459Z,84.76
2022-08-03T04:21:42.141Z,84.66
2022-08-03T04:22:47.358Z,84.66
2022-08-03T04:23:54.122Z,84.87
2022-08-03T04:25:00.875Z,84.96
2022-08-03T04:26:09.035Z,85.16
2022-08-03T04:27:15.121Z,85.24
2022-08-03T04:28:31.370Z,84.99
2022-08-03T04:29:26.550Z,84.85
2022-08-03T04:30:33.194Z,84.95
2022-08-03T04:31:38.086Z,84.79
2022-08-03T04:32:46.008Z,84.85
2022-08-03T04:33:51.385Z,84.95
2022-08-03T04:34:54.499Z,85.06
2022-08-03T04:36:02.873Z,85.15
2022-08-03T04:37:07.352Z,85.08
2022-08-03T04:38:14.081Z,84.75
2022-08-03T04:39:26.229Z,84.44
2022-08-03T04:40:38.209Z,84.23
2022-08-03T04:42:04.712Z,84.27
2022-08-03T04:42:50.585Z,84.27
2022-08-03T04:43:58.753Z,84.29
2022-08-03T04:45:03.672Z,84.23
2022-08-03T04:46:08.126Z,84.16
2022-08-03T04:47:11.199Z,83.89
2022-08-03T04:48:15.064Z,83.86
2022-08-03T04:49:19.835Z,84.06
2022-08-03T04:50:27.579Z,84.30
2022-08-03T04:51:40.163Z,84.60
2022-08-03T04:52:44.039Z,84.54
2022-08-03T04:53:47.091Z,84.42
2022-08-03T04:54:51.165Z,84.49
2022-08-03T04:55:54.279Z,84.51
2022-08-03T04:56:57.516Z,84.55
2022-08-03T04:58:01.896Z,84.61
2022-08-03T04:59:04.904Z,84.54
2022-08-03T05:00:09.147Z,84.38
2022-08-03T05:01:12.511Z,84.29
2022-08-03T05:02:15.758Z,84.03
2022-08-03T05:03:23.692Z,83.88
2022-08-03T05:04:23.983Z,83.73
2022-08-03T05:05:49.014Z,83.69
2022-08-03T05:06:32.281Z,83.50
2022-08-03T05:07:36.703Z,83.18
2022-08-03T05:08:46.171Z,83.11
2022-08-03T05:09:50.042Z,83.03
2022-08-03T05:10:50.126Z,82.93
2022-08-03T05:11:53.344Z,82.98
2022-08-03T05:12:56.377Z,82.87
2022-08-03T05:13:59.347Z,82.84
2022-08-03T05:15:03.273Z,82.70
2022-08-03T05:16:06.441Z,82.61
2022-08-03T05:17:09.772Z,82.55
2022-08-03T05:18:14.322Z,82.61
2022-08-03T05:19:17.559Z,82.51
2022-08-03T05:20:22.088Z,82.25
2022-08-03T05:21:25.743Z,82.36
2022-08-03T05:22:30.559Z,82.48
2022-08-03T05:23:33.784Z,82.43
2022-08-03T05:24:36.658Z,82.47
2022-08-03T05:25:39.731Z,82.64
2022-08-03T05:26:44.623Z,82.86
2022-08-03T05:27:47.839Z,82.93
2022-08-03T05:28:52.031Z,82.82
2022-08-03T05:29:55.332Z,82.97
2022-08-03T05:30:58.457Z,82.91
2022-08-03T05:32:06.230Z,82.80
2022-08-03T05:33:08.266Z,82.67
2022-08-03T05:34:11.411Z,82.52
2022-08-03T05:36:01.034Z,82.47
2022-08-03T05:36:19.612Z,82.49
2022-08-03T05:37:22.481Z,82.23
2022-08-03T05:38:33.172Z,82.13
2022-08-03T05:39:30.624Z,82.14
2022-08-03T05:40:34.555Z,82.21
2022-08-03T05:41:37.724Z,82.21
2022-08-03T05:42:40.872Z,82.39
2022-08-03T05:43:44.710Z,82.43
2022-08-03T05:44:47.778Z,82.49
2022-08-03T05:46:12.353Z,82.60
2022-08-03T05:46:56.121Z,82.62
2022-08-03T05:47:59.084Z,82.60
2022-08-03T05:49:02.126Z,82.60
2022-08-03T05:50:06.156Z,82.66
2022-08-03T05:51:10.577Z,82.53
2022-08-03T05:52:15.746Z,82.49
2022-08-03T05:53:18.689Z,82.46
2022-08-03T05:54:21.724Z,82.46
2022-08-03T05:55:26.779Z,82.13
2022-08-03T05:56:30.370Z,82.06
2022-08-03T05:57:33.696Z,82.01
2022-08-03T05:58:36.769Z,81.98
2022-08-03T05:59:39.835Z,81.84
2022-08-03T06:00:44.871Z,81.80
2022-08-03T06:01:47.975Z,81.65
2022-08-03T06:02:51.344Z,81.64
2022-08-03T06:03:54.458Z,81.70
2022-08-03T06:04:57.512Z,81.58
2022-08-03T06:06:00.834Z,81.45
2022-08-03T06:07:03.988Z,81.59
2022-08-03T06:08:07.785Z,81.84
2022-08-03T06:09:11.043Z,81.85
2022-08-03T06:10:36.898Z,81.72
2022-08-03T06:11:22.439Z,81.65
2022-08-03T06:12:25.796Z,81.57
2022-08-03T06:13:29.030Z,81.51
2022-08-03T06:14:31.904Z,81.37
2022-08-03T06:15:34.962Z,81.36
2022-08-03T06:16:38.280Z,81.30
2022-08-03T06:17:48.648Z,81.30
2022-08-03T06:18:51.786Z,81.23
2022-08-03T06:19:54.646Z,81.10
2022-08-03T06:20:58.437Z,81.00
2022-08-03T06:22:03.359Z,81.15
2022-08-03T06:23:07.414Z,81.22
2022-08-03T06:24:10.803Z,81.08
2022-08-03T06:25:16.297Z,81.02
2022-08-03T06:26:20.204Z,80.96
2022-08-03T06:27:36.501Z,80.94
2022-08-03T06:28:52.978Z,80.84
2022-08-03T06:29:33.238Z,80.76
2022-08-03T06:30:36.423Z,80.92
2022-08-03T06:31:40.488Z,80.90
2022-08-03T06:32:43.909Z,80.67
2022-08-03T06:34:34.145Z,80.68
2022-08-03T06:34:54.063Z,80.69
2022-08-03T06:35:57.091Z,80.70
2022-08-03T06:37:02.232Z,80.43
2022-08-03T06:38:05.058Z,80.32
2022-08-03T06:39:08.356Z,80.15
2022-08-03T06:40:14.478Z,80.05
2022-08-03T06:41:17.752Z,80.08
2022-08-03T06:42:21.149Z,79.72
2022-08-03T06:43:25.997Z,79.67
2022-08-03T06:44:29.250Z,79.61
2022-08-03T06:45:32.829Z,79.61
2022-08-03T06:46:36.260Z,79.57
2022-08-03T06:47:40.040Z,79.49
2022-08-03T06:48:44.838Z,79.24
2022-08-03T06:50:13.007Z,79.03
2022-08-03T06:50:53.123Z,78.80
2022-08-03T06:52:05.021Z,78.66
2022-08-03T06:53:01.937Z,78.44
2022-08-03T06:54:05.027Z,78.39
2022-08-03T06:55:08.282Z,78.35
2022-08-03T06:56:11.938Z,78.26
2022-08-03T06:57:16.886Z,78.29
2022-08-03T06:58:19.875Z,77.99
2022-08-03T07:00:06.191Z,77.80
2022-08-03T07:00:28.909Z,77.87
2022-08-03T07:01:31.876Z,77.81
2022-08-03T07:02:35.014Z,77.39
2022-08-03T07:03:37.881Z,77.22
2022-08-03T07:04:42.848Z,77.34
2022-08-03T07:06:16.880Z,77.44
2022-08-03T07:07:20.111Z,77.52
2022-08-03T07:08:33.552Z,77.39
2022-08-03T07:09:28.669Z,77.39
2022-08-03T07:10:32.082Z,77.43
2022-08-03T07:11:35.109Z,77.34
2022-08-03T07:12:52.813Z,77.21
2022-08-03T07:13:44.623Z,77.31
2022-08-03T07:14:47.627Z,77.14
2022-08-03T07:15:55.328Z,76.84
2022-08-03T07:16:55.787Z,76.63
2022-08-03T07:17:58.896Z,76.84
2022-08-03T07:19:01.935Z,76.57
2022-08-03T07:20:07.169Z,76.55
2022-08-03T07:21:12.130Z,76.62
2022-08-03T07:22:15.383Z,76.35
2022-08-03T07:23:19.124Z,76.09
2022-08-03T07:24:23.069Z,75.97
2022-08-03T07:25:26.133Z,75.98
2022-08-03T07:26:30.157Z,75.84
2022-08-03T07:27:33.252Z,75.40
2022-08-03T07:28:37.257Z,75.40
2022-08-03T07:29:40.267Z,75.31
2022-08-03T07:30:43.254Z,75.11
2022-08-03T07:31:46.367Z,75.09
2022-08-03T07:32:50.730Z,74.90
2022-08-03T07:33:54.086Z,74.90
2022-08-03T07:35:00.845Z,74.68
2022-08-03T07:36:02.704Z,74.63
2022-08-03T07:37:05.924Z,74.62
2022-08-03T07:38:09.088Z,74.51
2022-08-03T07:39:17.838Z,74.22
2022-08-03T07:40:17.385Z,74.14
2022-08-03T07:41:20.461Z,74.15
2022-08-03T07:42:23.774Z,74.17
2022-08-03T07:43:26.902Z,74.04
2022-08-03T07:44:29.973Z,73.92
2022-08-03T07:45:33.029Z,73.98
2022-08-03T07:46:36.191Z,73.91
2022-08-03T07:47:39.309Z,73.86
2022-08-03T07:48:42.381Z,73.79
2022-08-03T07:49:45.554Z,73.84
2022-08-03T07:50:48.742Z,73.78
2022-08-03T07:51:53.537Z,73.57
2022-08-03T07:52:57.660Z,73.37
2022-08-03T07:54:01.024Z,72.99
2022-08-03T07:55:06.592Z,72.84
2022-08-03T07:56:11.243Z,72.72
2022-08-03T07:57:14.728Z,72.61
2022-08-03T07:58:21.934Z,72.86
2022-08-03T07:59:22.953Z,73.01
2022-08-03T08:00:26.843Z,72.82
2022-08-03T08:01:32.153Z,72.73
2022-08-03T08:02:35.349Z,72.70
2022-08-03T08:03:41.144Z,72.75
2022-08-03T08:04:43.206Z,72.64
2022-08-03T08:05:46.160Z,72.87
2022-08-03T08:06:49.177Z,72.95
2022-08-03T08:07:52.452Z,72.99
2022-08-03T08:08:57.485Z,72.75
2022-08-03T08:10:00.605Z,72.51
2022-08-03T08:11:03.741Z,72.39
2022-08-03T08:12:07.612Z,72.77
2022-08-03T08:13:12.621Z,72.59
2022-08-03T08:14:15.776Z,72.62
2022-08-03T08:15:19.026Z,72.58
2022-08-03T08:16:22.777Z,72.53
2022-08-03T08:17:25.900Z,72.38
2022-08-03T08:18:32.106Z,72.28
2022-08-03T08:19:35.147Z,72.30
2022-08-03T08:20:40.119Z,72.08
2022-08-03T08:22:02.052Z,72.02
2022-08-03T08:22:49.925Z,71.85
2022-08-03T08:23:57.973Z,71.72
2022-08-03T08:25:01.314Z,71.20
2022-08-03T08:26:05.309Z,71.04
2022-08-03T08:27:08.495Z,70.90
2022-08-03T08:28:31.451Z,70.61
2022-08-03T08:29:16.570Z,70.12
2022-08-03T08:30:22.954Z,69.98
2022-08-03T08:31:26.054Z,70.03
2022-08-03T08:32:29.081Z,70.12
2022-08-03T08:34:03.686Z,70.06
2022-08-03T08:34:39.032Z,69.93
2022-08-03T08:35:42.188Z,69.98
2022-08-03T08:36:45.776Z,69.66
2022-08-03T08:37:50.986Z,69.57
2022-08-03T08:38:54.583Z,69.70
2022-08-03T08:39:58.083Z,69.54
2022-08-03T08:41:01.273Z,69.59
2022-08-03T08:42:04.445Z,69.44
2022-08-03T08:43:14.458Z,69.31
2022-08-03T08:44:17.502Z,69.02
2022-08-03T08:45:20.648Z,68.93
2022-08-03T08:46:24.228Z,68.88
2022-08-03T08:47:30.084Z,69.12
2022-08-03T08:48:37.546Z,68.63
2022-08-03T08:49:49.444Z,68.48
2022-08-03T08:50:47.036Z,68.09
2022-08-03T08:52:00.651Z,67.78
2022-08-03T08:53:00.581Z,67.91
2022-08-03T08:54:06.726Z,67.76
2022-08-03T08:55:13.107Z,67.54
2022-08-03T08:56:17.035Z,67.42
2022-08-03T08:57:43.702Z,67.29
2022-08-03T08:58:55.967Z,66.75
2022-08-03T09:00:01.068Z,66.78
2022-08-03T09:01:04.321Z,66.97
2022-08-03T09:02:07.476Z,66.95
2022-08-03T09:03:11.642Z,66.85
2022-08-03T09:04:17.500Z,66.71
2022-08-03T09:05:31.665Z,66.80
2022-08-03T09:06:27.444Z,66.54
2022-08-03T09:07:30.920Z,66.27
2022-08-03T09:08:34.286Z,66.37
2022-08-03T09:10:08.298Z,66.05
2022-08-03T09:10:42.231Z,65.84
2022-08-03T09:11:57.588Z,65.87
2022-08-03T09:12:52.379Z,66.21
2022-08-03T09:13:55.440Z,66.45
2022-08-03T09:15:16.580Z,66.44
2022-08-03T09:16:18.691Z,66.34
2022-08-03T09:17:21.897Z,66.30
2022-08-03T09:18:32.586Z,66.15
2022-08-03T09:19:36.373Z,66.17
2022-08-03T09:20:39.661Z,65.89
2022-08-03T09:21:42.918Z,65.21
2022-08-03T09:23:09.681Z,64.99
2022-08-03T09:24:13.127Z,64.89
2022-08-03T09:25:24.286Z,64.95
2022-08-03T09:26:27.053Z,64.65
2022-08-03T09:27:34.514Z,64.77
2022-08-03T09:29:00.005Z,64.07
2022-08-03T09:29:46.035Z,63.97
2022-08-03T09:30:59.208Z,63.77
2022-08-03T09:32:03.757Z,63.70
2022-08-03T09:34:24.458Z,63.52
2022-08-03T09:35:51.686Z,63.37
2022-08-03T09:36:47.406Z,62.97
2022-08-03T09:38:12.767Z,62.68
2022-08-03T09:39:10.783Z,62.66
2022-08-03T09:40:18.438Z,62.55
2022-08-03T09:41:21.592Z,62.49
2022-08-03T09:42:26.578Z,62.30
2022-08-03T09:43:33.408Z,62.11
2022-08-03T09:44:42.090Z,62.21
2022-08-03T09:45:45.832Z,62.69
2022-08-03T09:46:50.594Z,62.48
2022-08-03T09:47:53.668Z,62.29
2022-08-03T09:49:12.267Z,62.06
2022-08-03T09:50:15.636Z,62.23
2022-08-03T09:52:30.089Z,62.11
2022-08-03T09:52:50.043Z,61.72
2022-08-03T09:53:59.222Z,61.70
2022-08-03T09:54:53.525Z,61.40
2022-08-03T09:56:33.878Z,61.59
2022-08-03T09:57:06.647Z,61.38
2022-08-03T09:58:09.869Z,61.10
2022-08-03T09:59:16.132Z,61.00
2022-08-03T10:00:20.407Z,60.86
2022-08-03T10:01:27.414Z,60.97
2022-08-03T10:02:30.514Z,61.53
2022-08-03T10:03:36.021Z,61.68
2022-08-03T10:04:50.503Z,61.51
2022-08-03T10:05:58.996Z,61.44
2022-08-03T10:07:05.033Z,61.66
2022-08-03T10:08:11.697Z,61.56
2022-08-03T10:09:16.337Z,61.28
2022-08-03T10:10:30.109Z,60.73
2022-08-03T10:11:32.031Z,60.78
2022-08-03T10:12:35.084Z,60.76
2022-08-03T10:13:38.228Z,60.57
2022-08-03T10:14:43.999Z,60.56
2022-08-03T10:16:22.767Z,60.43
2022-08-03T10:16:52.568Z,60.11
2022-08-03T10:17:55.684Z,59.89
2022-08-03T10:18:58.928Z,60.21
2022-08-03T10:20:03.350Z,60.54
2022-08-03T10:21:09.907Z,60.43
2022-08-03T10:22:16.506Z,60.11
2022-08-03T10:23:21.118Z,59.64
2022-08-03T10:24:26.803Z,59.48
2022-08-03T10:25:33.555Z,59.16
2022-08-03T10:26:39.318Z,58.78
2022-08-03T10:27:47.170Z,58.68
2022-08-03T10:28:52.962Z,58.18
2022-08-03T10:29:58.201Z,58.26
2022-08-03T10:31:04.405Z,58.66
2022-08-03T10:32:28.890Z,58.50
2022-08-03T10:33:51.197Z,58.28
2022-08-03T10:34:44.513Z,57.90
2022-08-03T10:35:49.841Z,57.87
2022-08-03T10:36:56.546Z,58.14
2022-08-03T10:38:03.162Z,58.55
2022-08-03T10:39:16.418Z,58.33
2022-08-03T10:40:39.511Z,58.44
2022-08-03T10:41:28.102Z,57.94
2022-08-03T10:42:31.398Z,57.48
2022-08-03T10:43:38.021Z,57.14
2022-08-03T10:44:42.365Z,57.29
2022-08-03T10:45:46.348Z,57.84
2022-08-03T10:47:10.598Z,57.90
2022-08-03T10:48:14.302Z,57.97
2022-08-03T10:49:33.784Z,58.02
2022-08-03T10:50:27.798Z,57.72
2022-08-03T10:51:32.354Z,57.82
2022-08-03T10:52:41.277Z,57.81
2022-08-03T10:53:44.183Z,57.65
2022-08-03T10:55:07.575Z,57.47
2022-08-03T10:56:54.651Z,57.13
2022-08-03T10:57:58.869Z,56.72
2022-08-03T10:59:03.790Z,56.76
2022-08-03T11:00:09.299Z,56.56
2022-08-03T11:01:13.064Z,56.31
2022-08-03T11:02:17.499Z,56.56
2022-08-03T11:03:20.725Z,56.00
2022-08-03T11:04:25.295Z,55.77
2022-08-03T11:05:30.782Z,55.43
2022-08-03T11:06:37.287Z,55.06
2022-08-03T11:07:40.338Z,55.03
2022-08-03T11:08:43.313Z,55.43
2022-08-03T11:09:48.756Z,55.29
2022-08-03T11:10:55.486Z,55.05
2022-08-03T11:12:02.092Z,55.06
2022-08-03T11:13:10.613Z,55.13
2022-08-03T11:14:20.945Z,55.23
2022-08-03T11:15:27.576Z,55.38
2022-08-03T11:16:35.068Z,55.22
2022-08-03T11:17:46.433Z,55.14
2022-08-03T11:18:58.259Z,55.21
2022-08-03T11:20:01.598Z,55.03
2022-08-03T11:21:04.782Z,55.52
2022-08-03T11:22:07.792Z,55.44
2022-08-03T11:23:10.972Z,55.03
2022-08-03T11:24:49.374Z,54.91
2022-08-03T11:26:14.585Z,54.59
2022-08-03T11:27:19.732Z,54.82
2022-08-03T11:28:30.650Z,54.98
2022-08-03T11:29:34.012Z,55.06
2022-08-03T11:30:38.808Z,55.02
2022-08-03T11:31:50.765Z,54.67
2022-08-03T11:32:52.603Z,54.92
2022-08-03T11:34:07.766Z,54.58
2022-08-03T11:35:19.375Z,54.65
2022-08-03T11:36:32.423Z,54.75
2022-08-03T11:37:33.151Z,54.41
2022-08-03T11:38:32.838Z,54.38
2022-08-03T11:40:54.767Z,54.53
2022-08-03T11:41:57.783Z,54.84
2022-08-03T11:43:01.449Z,54.71
2022-08-03T11:44:04.663Z,54.19
2022-08-03T11:45:09.583Z,54.21
2022-08-03T11:46:29.390Z,53.86
2022-08-03T11:47:26.480Z,53.58
2022-08-03T11:48:37.646Z,53.78
2022-08-03T11:49:41.102Z,53.90
2022-08-03T11:50:44.914Z,53.78
2022-08-03T11:51:51.754Z,53.42
2022-08-03T11:52:55.008Z,53.39
2022-08-03T11:54:00.792Z,53.10
2022-08-03T11:55:09.260Z,52.98
2022-08-03T11:56:13.621Z,53.71
2022-08-03T11:59:01.608Z,53.66
2022-08-03T11:59:03.415Z,53.07
2022-08-03T11:59:42.174Z,53.27
2022-08-03T12:00:45.403Z,53.59
2022-08-03T12:01:48.762Z,53.77
2022-08-03T12:03:06.955Z,53.63
2022-08-03T12:04:11.222Z,53.58
2022-08-03T12:05:14.304Z,53.17
2022-08-03T12:06:18.930Z,52.94
2022-08-03T12:08:02.442Z,52.57
2022-08-03T12:08:30.315Z,52.74
2022-08-03T12:11:10.365Z,53.04
2022-08-03T12:12:15.843Z,52.67
2022-08-03T12:14:05.774Z,52.72
2022-08-03T12:14:51.064Z,52.42
2022-08-03T12:15:33.583Z,52.26
2022-08-03T12:16:37.837Z,52.09
2022-08-03T12:17:41.213Z,51.73
2022-08-03T12:18:44.469Z,51.71
2022-08-03T12:19:47.710Z,51.48
2022-08-03T12:20:52.921Z,51.05
2022-08-03T12:21:56.951Z,51.07
2022-08-03T12:23:05.918Z,51.08
2022-08-03T12:24:09.244Z,51.37
2022-08-03T12:25:38.769Z,51.54
2022-08-03T12:26:32.537Z,51.83
2022-08-03T12:27:36.085Z,51.78
2022-08-03T12:28:44.217Z,51.43
2022-08-03T12:29:58.609Z,51.55
2022-08-03T12:30:57.905Z,51.58
2022-08-03T12:32:01.577Z,51.95
2022-08-03T12:33:14.888Z,52.66
2022-08-03T12:34:18.276Z,51.85
2022-08-03T12:35:23.896Z,51.58
2022-08-03T12:36:31.244Z,51.36
2022-08-03T12:37:34.601Z,51.19
2022-08-03T12:38:39.522Z,51.13
2022-08-03T12:40:02.107Z,51.04
2022-08-03T12:41:01.341Z,51.07
2022-08-03T12:42:04.712Z,51.34
2022-08-03T12:43:12.362Z,51.47
2022-08-03T12:44:15.663Z,51.52
2022-08-03T12:45:24.561Z,51.39
2022-08-03T12:46:36.531Z,51.44
2022-08-03T12:49:15.682Z,51.29
2022-08-03T12:50:26.254Z,50.94
2022-08-03T12:51:32.290Z,50.46
2022-08-03T12:52:39.104Z,50.11
2022-08-03T12:53:42.098Z,50.54
2022-08-03T12:54:56.248Z,49.91
2022-08-03T12:56:05.705Z,49.97
2022-08-03T12:57:16.132Z,49.73
2022-08-03T12:58:20.667Z,49.86
2022-08-03T12:59:32.353Z,49.67
2022-08-03T13:00:31.131Z,49.60
2022-08-03T13:01:38.599Z,49.58
2022-08-03T13:02:46.499Z,49.86
2022-08-03T13:03:53.009Z,50.45
2022-08-03T13:04:55.551Z,50.15
2022-08-03T13:05:58.761Z,50.01
2022-08-03T13:07:12.649Z,50.73
2022-08-03T13:08:20.597Z,50.72
2022-08-03T13:09:25.460Z,50.43
2022-08-03T13:10:31.062Z,49.91
2022-08-03T13:11:57.954Z,49.96
2022-08-03T13:12:48.050Z,49.42
2022-08-03T13:13:52.518Z,49.14
2022-08-03T13:14:57.858Z,48.90
2022-08-03T13:16:00.858Z,48.62
2022-08-03T13:17:05.891Z,48.51
2022-08-03T13:18:09.071Z,48.33
2022-08-03T13:19:15.536Z,48.20
2022-08-03T13:20:17.665Z,47.94
2022-08-03T13:21:21.103Z,47.65
2022-08-03T13:22:28.387Z,47.42
2022-08-03T13:23:31.923Z,47.60
2022-08-03T13:24:34.910Z,47.91
2022-08-03T13:25:38.205Z,47.91
2022-08-03T13:26:42.995Z,47.99
2022-08-03T13:28:03.447Z,48.17
2022-08-03T13:28:51.390Z,48.20
2022-08-03T13:29:55.004Z,48.35
2022-08-03T13:30:58.109Z,48.46
2022-08-03T13:32:02.329Z,48.65
2022-08-03T13:33:05.759Z,48.92
2022-08-03T13:34:09.050Z,49.39
2022-08-03T13:35:12.104Z,49.71
2022-08-03T13:36:17.754Z,49.40
2022-08-03T13:37:21.252Z,49.32
2022-08-03T13:38:26.984Z,49.48
2022-08-03T13:39:32.453Z,50.05
2022-08-03T13:40:41.713Z,50.02
2022-08-03T13:41:40.391Z,49.89
2022-08-03T13:42:43.333Z,49.68
2022-08-03T13:43:46.550Z,49.68
2022-08-03T13:44:50.190Z,50.45
2022-08-03T13:45:57.617Z,50.05
2022-08-03T13:47:00.190Z,50.27
2022-08-03T13:48:03.335Z,50.44
2022-08-03T13:49:07.004Z,50.33
2022-08-03T13:50:10.827Z,50.20
2022-08-03T13:51:22.415Z,50.21
2022-08-03T13:52:19.383Z,50.26
2022-08-03T13:53:24.052Z,50.44
2022-08-03T13:54:27.316Z,50.48
2022-08-03T13:55:30.384Z,50.50
2022-08-03T13:56:33.475Z,50.64
2022-08-03T13:58:11.448Z,50.82
2022-08-03T13:58:41.507Z,50.99
2022-08-03T13:59:44.475Z,51.08
2022-08-03T14:00:47.632Z,51.19
2022-08-03T14:01:55.526Z,51.28
2022-08-03T14:03:09.046Z,51.27
2022-08-03T14:04:06.227Z,51.35
2022-08-03T14:05:11.279Z,51.57
2022-08-03T14:06:14.877Z,51.82
2022-08-03T14:07:18.436Z,51.86
2022-08-03T14:08:21.535Z,51.87
2022-08-03T14:09:24.599Z,51.94
2022-08-03T14:10:27.686Z,52.08
2022-08-03T14:12:08.175Z,52.24
2022-08-03T14:12:35.899Z,52.19
2022-08-03T14:13:38.947Z,52.25
2022-08-03T14:14:42.078Z,52.32